sensor_id;sensor_type;location;lat;lon;timestamp;P1;durP1;ratioP1;P2;durP2;ratioP2
62693;SDS011;48759;52.544;13.418;2023-06-22T00:01:56;17.10;;;15.40;;
62693;SDS011;48759;52.544;13.418;2023-06-22T00:04:23;20.17;;;15.80;;
62693;SDS011;48759;52.544;13.418;2023-06-22T00:06:51;18.30;;;15.90;;
62693;SDS011;48759;52.544;13.418;2023-06-22T00:09:18;19.77;;;15.50;;
62693;SDS011;48759;52.544;13.418;2023-06-22T00:11:45;18.57;;;16.33;;
62693;SDS011;48759;52.544;13.418;2023-06-22T00:14:12;18.77;;;16.77;;
62693;SDS011;48759;52.544;13.418;2023-06-22T00:16:38;18.20;;;16.20;;
62693;SDS011;48759;52.544;13.418;2023-06-22T00:19:08;28.13;;;16.70;;
62693;SDS011;48759;52.544;13.418;2023-06-22T00:21:36;17.67;;;15.70;;
62693;SDS011;48759;52.544;13.418;2023-06-22T00:24:05;20.70;;;15.80;;
62693;SDS011;48759;52.544;13.418;2023-06-22T00:26:32;19.30;;;17.20;;
62693;SDS011;48759;52.544;13.418;2023-06-22T00:28:59;18.27;;;16.20;;
62693;SDS011;48759;52.544;13.418;2023-06-22T00:31:26;18.03;;;15.60;;
62693;SDS011;48759;52.544;13.418;2023-06-22T00:33:55;17.57;;;15.77;;
62693;SDS011;48759;52.544;13.418;2023-06-22T00:36:22;18.97;;;16.97;;
62693;SDS011;48759;52.544;13.418;2023-06-22T00:38:50;22.50;;;16.90;;
62693;SDS011;48759;52.544;13.418;2023-06-22T00:41:18;19.87;;;16.53;;
62693;SDS011;48759;52.544;13.418;2023-06-22T00:43:44;19.43;;;17.33;;
62693;SDS011;48759;52.544;13.418;2023-06-22T00:46:11;20.93;;;16.63;;
62693;SDS011;48759;52.544;13.418;2023-06-22T00:48:38;19.13;;;15.83;;
62693;SDS011;48759;52.544;13.418;2023-06-22T00:51:09;19.70;;;16.30;;
62693;SDS011;48759;52.544;13.418;2023-06-22T00:53:36;21.10;;;17.60;;
62693;SDS011;48759;52.544;13.418;2023-06-22T00:56:03;18.63;;;16.70;;
62693;SDS011;48759;52.544;13.418;2023-06-22T00:58:32;18.47;;;16.37;;
62693;SDS011;48759;52.544;13.418;2023-06-22T01:01:01;19.40;;;16.23;;
62693;SDS011;48759;52.544;13.418;2023-06-22T01:03:28;20.23;;;16.73;;
62693;SDS011;48759;52.544;13.418;2023-06-22T01:05:55;20.20;;;17.80;;
62693;SDS011;48759;52.544;13.418;2023-06-22T01:08:35;27.80;;;18.03;;
62693;SDS011;48759;52.544;13.418;2023-06-22T01:11:11;27.67;;;17.83;;
62693;SDS011;48759;52.544;13.418;2023-06-22T01:13:45;23.27;;;17.00;;
62693;SDS011;48759;52.544;13.418;2023-06-22T01:16:17;18.33;;;16.43;;
62693;SDS011;48759;52.544;13.418;2023-06-22T01:18:50;18.97;;;16.10;;
62693;SDS011;48759;52.544;13.418;2023-06-22T01:21:19;18.17;;;15.30;;
62693;SDS011;48759;52.544;13.418;2023-06-22T01:23:50;20.50;;;16.93;;
62693;SDS011;48759;52.544;13.418;2023-06-22T01:26:33;19.77;;;16.67;;
62693;SDS011;48759;52.544;13.418;2023-06-22T01:29:05;19.97;;;16.50;;
62693;SDS011;48759;52.544;13.418;2023-06-22T01:31:34;18.93;;;16.93;;
62693;SDS011;48759;52.544;13.418;2023-06-22T01:34:02;19.47;;;17.40;;
62693;SDS011;48759;52.544;13.418;2023-06-22T01:36:31;17.93;;;16.13;;
62693;SDS011;48759;52.544;13.418;2023-06-22T01:38:59;19.30;;;17.30;;
62693;SDS011;48759;52.544;13.418;2023-06-22T01:41:27;20.50;;;17.73;;
62693;SDS011;48759;52.544;13.418;2023-06-22T01:43:55;18.90;;;16.80;;
62693;SDS011;48759;52.544;13.418;2023-06-22T01:46:24;21.80;;;17.40;;
62693;SDS011;48759;52.544;13.418;2023-06-22T01:48:51;19.83;;;17.37;;
62693;SDS011;48759;52.544;13.418;2023-06-22T01:51:19;18.40;;;16.50;;
62693;SDS011;48759;52.544;13.418;2023-06-22T01:53:46;30.77;;;18.73;;
62693;SDS011;48759;52.544;13.418;2023-06-22T01:56:13;26.23;;;20.17;;
62693;SDS011;48759;52.544;13.418;2023-06-22T01:58:45;29.50;;;21.27;;
62693;SDS011;48759;52.544;13.418;2023-06-22T02:01:17;24.10;;;18.73;;
62693;SDS011;48759;52.544;13.418;2023-06-22T02:03:50;22.63;;;18.97;;
62693;SDS011;48759;52.544;13.418;2023-06-22T02:06:23;25.23;;;20.80;;
62693;SDS011;48759;52.544;13.418;2023-06-22T02:09:00;26.23;;;22.33;;
62693;SDS011;48759;52.544;13.418;2023-06-22T02:11:32;27.53;;;21.10;;
62693;SDS011;48759;52.544;13.418;2023-06-22T02:14:00;30.07;;;22.40;;
62693;SDS011;48759;52.544;13.418;2023-06-22T02:16:27;28.97;;;21.87;;
62693;SDS011;48759;52.544;13.418;2023-06-22T02:18:57;29.03;;;23.90;;
62693;SDS011;48759;52.544;13.418;2023-06-22T02:21:28;32.50;;;25.43;;
62693;SDS011;48759;52.544;13.418;2023-06-22T02:23:55;29.50;;;23.57;;
62693;SDS011;48759;52.544;13.418;2023-06-22T02:26:22;29.20;;;24.67;;
62693;SDS011;48759;52.544;13.418;2023-06-22T02:28:51;25.97;;;22.23;;
62693;SDS011;48759;52.544;13.418;2023-06-22T02:31:18;29.30;;;23.53;;
62693;SDS011;48759;52.544;13.418;2023-06-22T02:33:45;27.60;;;23.07;;
62693;SDS011;48759;52.544;13.418;2023-06-22T02:36:13;28.90;;;23.60;;
62693;SDS011;48759;52.544;13.418;2023-06-22T02:38:40;30.00;;;22.50;;
62693;SDS011;48759;52.544;13.418;2023-06-22T02:41:13;30.73;;;22.07;;
62693;SDS011;48759;52.544;13.418;2023-06-22T02:43:44;33.27;;;23.43;;
62693;SDS011;48759;52.544;13.418;2023-06-22T02:46:11;32.10;;;22.17;;
62693;SDS011;48759;52.544;13.418;2023-06-22T02:48:38;24.70;;;20.87;;
62693;SDS011;48759;52.544;13.418;2023-06-22T02:51:05;26.27;;;22.07;;
62693;SDS011;48759;52.544;13.418;2023-06-22T02:53:34;28.27;;;21.03;;
62693;SDS011;48759;52.544;13.418;2023-06-22T02:56:01;25.63;;;21.27;;
62693;SDS011;48759;52.544;13.418;2023-06-22T02:58:30;24.70;;;21.13;;
62693;SDS011;48759;52.544;13.418;2023-06-22T03:00:58;26.13;;;21.23;;
62693;SDS011;48759;52.544;13.418;2023-06-22T03:03:29;25.27;;;20.90;;
62693;SDS011;48759;52.544;13.418;2023-06-22T03:05:56;24.83;;;20.00;;
62693;SDS011;48759;52.544;13.418;2023-06-22T03:08:23;24.70;;;21.70;;
62693;SDS011;48759;52.544;13.418;2023-06-22T03:10:51;26.20;;;22.03;;
62693;SDS011;48759;52.544;13.418;2023-06-22T03:13:17;25.27;;;20.23;;
62693;SDS011;48759;52.544;13.418;2023-06-22T03:15:44;24.23;;;21.23;;
62693;SDS011;48759;52.544;13.418;2023-06-22T03:18:11;28.53;;;21.40;;
62693;SDS011;48759;52.544;13.418;2023-06-22T03:20:38;27.43;;;20.40;;
62693;SDS011;48759;52.544;13.418;2023-06-22T03:23:04;22.43;;;19.03;;
62693;SDS011;48759;52.544;13.418;2023-06-22T03:25:31;22.47;;;19.40;;
62693;SDS011;48759;52.544;13.418;2023-06-22T03:28:00;24.87;;;20.53;;
62693;SDS011;48759;52.544;13.418;2023-06-22T03:30:26;27.37;;;19.07;;
62693;SDS011;48759;52.544;13.418;2023-06-22T03:32:53;29.23;;;20.83;;
62693;SDS011;48759;52.544;13.418;2023-06-22T03:35:19;25.00;;;20.90;;
62693;SDS011;48759;52.544;13.418;2023-06-22T03:37:46;26.20;;;19.60;;
62693;SDS011;48759;52.544;13.418;2023-06-22T03:40:13;23.00;;;19.77;;
62693;SDS011;48759;52.544;13.418;2023-06-22T03:42:40;23.23;;;19.50;;
62693;SDS011;48759;52.544;13.418;2023-06-22T03:45:08;24.03;;;19.70;;
62693;SDS011;48759;52.544;13.418;2023-06-22T03:47:37;26.63;;;20.40;;
62693;SDS011;48759;52.544;13.418;2023-06-22T03:50:04;28.17;;;20.97;;
62693;SDS011;48759;52.544;13.418;2023-06-22T03:52:32;21.20;;;18.90;;
62693;SDS011;48759;52.544;13.418;2023-06-22T03:54:59;25.17;;;19.30;;
62693;SDS011;48759;52.544;13.418;2023-06-22T03:57:25;21.03;;;18.80;;
62693;SDS011;48759;52.544;13.418;2023-06-22T03:59:53;26.53;;;18.10;;
62693;SDS011;48759;52.544;13.418;2023-06-22T04:02:22;23.97;;;18.50;;
62693;SDS011;48759;52.544;13.418;2023-06-22T04:04:48;24.13;;;18.80;;
62693;SDS011;48759;52.544;13.418;2023-06-22T04:07:15;22.43;;;18.40;;
62693;SDS011;48759;52.544;13.418;2023-06-22T04:09:43;23.30;;;18.27;;
62693;SDS011;48759;52.544;13.418;2023-06-22T04:12:10;19.10;;;17.10;;
62693;SDS011;48759;52.544;13.418;2023-06-22T04:14:37;20.90;;;16.80;;
62693;SDS011;48759;52.544;13.418;2023-06-22T04:17:04;20.23;;;15.47;;
62693;SDS011;48759;52.544;13.418;2023-06-22T04:19:32;17.30;;;14.63;;
62693;SDS011;48759;52.544;13.418;2023-06-22T04:21:58;21.00;;;14.67;;
62693;SDS011;48759;52.544;13.418;2023-06-22T04:24:25;15.00;;;13.50;;
62693;SDS011;48759;52.544;13.418;2023-06-22T04:26:52;15.83;;;14.13;;
62693;SDS011;48759;52.544;13.418;2023-06-22T04:29:19;16.67;;;12.00;;
62693;SDS011;48759;52.544;13.418;2023-06-22T04:31:46;16.60;;;12.40;;
62693;SDS011;48759;52.544;13.418;2023-06-22T04:34:15;13.70;;;11.40;;
62693;SDS011;48759;52.544;13.418;2023-06-22T04:36:44;13.53;;;11.47;;
62693;SDS011;48759;52.544;13.418;2023-06-22T04:39:12;14.30;;;12.27;;
62693;SDS011;48759;52.544;13.418;2023-06-22T04:41:39;15.20;;;11.77;;
62693;SDS011;48759;52.544;13.418;2023-06-22T04:44:09;16.13;;;11.70;;
62693;SDS011;48759;52.544;13.418;2023-06-22T04:46:36;17.43;;;11.70;;
62693;SDS011;48759;52.544;13.418;2023-06-22T04:49:04;14.97;;;10.60;;
62693;SDS011;48759;52.544;13.418;2023-06-22T04:51:34;15.37;;;11.20;;
62693;SDS011;48759;52.544;13.418;2023-06-22T04:54:04;14.10;;;11.17;;
62693;SDS011;48759;52.544;13.418;2023-06-22T04:56:31;12.57;;;9.70;;
62693;SDS011;48759;52.544;13.418;2023-06-22T04:58:58;11.47;;;9.10;;
62693;SDS011;48759;52.544;13.418;2023-06-22T05:01:24;14.83;;;9.47;;
62693;SDS011;48759;52.544;13.418;2023-06-22T05:03:51;11.30;;;9.83;;
62693;SDS011;48759;52.544;13.418;2023-06-22T05:06:20;16.67;;;8.83;;
62693;SDS011;48759;52.544;13.418;2023-06-22T05:08:50;13.27;;;9.07;;
62693;SDS011;48759;52.544;13.418;2023-06-22T05:11:18;9.90;;;8.30;;
62693;SDS011;48759;52.544;13.418;2023-06-22T05:13:45;15.87;;;8.17;;
62693;SDS011;48759;52.544;13.418;2023-06-22T05:16:12;9.90;;;7.43;;
62693;SDS011;48759;52.544;13.418;2023-06-22T05:18:38;11.47;;;6.57;;
62693;SDS011;48759;52.544;13.418;2023-06-22T05:21:06;9.13;;;6.47;;
62693;SDS011;48759;52.544;13.418;2023-06-22T05:23:33;9.93;;;6.80;;
62693;SDS011;48759;52.544;13.418;2023-06-22T05:26:00;10.10;;;6.87;;
62693;SDS011;48759;52.544;13.418;2023-06-22T05:28:28;12.93;;;6.80;;
62693;SDS011;48759;52.544;13.418;2023-06-22T05:30:54;9.47;;;6.80;;
62693;SDS011;48759;52.544;13.418;2023-06-22T05:33:21;9.53;;;6.83;;
62693;SDS011;48759;52.544;13.418;2023-06-22T05:35:48;14.67;;;9.50;;
62693;SDS011;48759;52.544;13.418;2023-06-22T05:38:15;8.40;;;5.93;;
62693;SDS011;48759;52.544;13.418;2023-06-22T05:40:42;10.50;;;5.70;;
62693;SDS011;48759;52.544;13.418;2023-06-22T05:43:08;11.50;;;6.20;;
62693;SDS011;48759;52.544;13.418;2023-06-22T05:45:42;10.33;;;5.83;;
62693;SDS011;48759;52.544;13.418;2023-06-22T05:48:13;9.53;;;6.10;;
62693;SDS011;48759;52.544;13.418;2023-06-22T05:50:40;7.40;;;6.17;;
62693;SDS011;48759;52.544;13.418;2023-06-22T05:53:06;9.70;;;6.80;;
62693;SDS011;48759;52.544;13.418;2023-06-22T05:55:33;6.83;;;5.60;;
62693;SDS011;48759;52.544;13.418;2023-06-22T05:58:00;11.50;;;5.83;;
62693;SDS011;48759;52.544;13.418;2023-06-22T06:00:28;8.30;;;5.77;;
62693;SDS011;48759;52.544;13.418;2023-06-22T06:02:56;8.63;;;6.37;;
62693;SDS011;48759;52.544;13.418;2023-06-22T06:05:28;7.83;;;5.50;;
62693;SDS011;48759;52.544;13.418;2023-06-22T06:07:55;7.67;;;6.23;;
62693;SDS011;48759;52.544;13.418;2023-06-22T06:10:22;6.27;;;5.30;;
62693;SDS011;48759;52.544;13.418;2023-06-22T06:12:49;11.50;;;6.23;;
62693;SDS011;48759;52.544;13.418;2023-06-22T06:15:15;6.70;;;5.77;;
62693;SDS011;48759;52.544;13.418;2023-06-22T06:17:46;9.83;;;6.07;;
62693;SDS011;48759;52.544;13.418;2023-06-22T06:20:14;9.60;;;6.73;;
62693;SDS011;48759;52.544;13.418;2023-06-22T06:22:41;6.20;;;5.60;;
62693;SDS011;48759;52.544;13.418;2023-06-22T06:25:08;11.20;;;7.27;;
62693;SDS011;48759;52.544;13.418;2023-06-22T06:27:40;7.00;;;5.80;;
62693;SDS011;48759;52.544;13.418;2023-06-22T06:30:08;13.30;;;6.13;;
62693;SDS011;48759;52.544;13.418;2023-06-22T06:32:35;7.60;;;5.80;;
62693;SDS011;48759;52.544;13.418;2023-06-22T06:35:03;7.07;;;6.37;;
62693;SDS011;48759;52.544;13.418;2023-06-22T06:37:32;10.87;;;6.77;;
62693;SDS011;48759;52.544;13.418;2023-06-22T06:40:01;6.17;;;5.57;;
62693;SDS011;48759;52.544;13.418;2023-06-22T06:42:28;8.00;;;5.60;;
62693;SDS011;48759;52.544;13.418;2023-06-22T06:44:55;6.80;;;4.90;;
62693;SDS011;48759;52.544;13.418;2023-06-22T06:47:22;9.50;;;4.60;;
62693;SDS011;48759;52.544;13.418;2023-06-22T06:49:48;6.27;;;4.77;;
62693;SDS011;48759;52.544;13.418;2023-06-22T06:52:15;6.80;;;4.70;;
62693;SDS011;48759;52.544;13.418;2023-06-22T06:54:43;12.27;;;4.90;;
62693;SDS011;48759;52.544;13.418;2023-06-22T06:57:10;8.37;;;4.80;;
62693;SDS011;48759;52.544;13.418;2023-06-22T06:59:38;5.27;;;4.40;;
62693;SDS011;48759;52.544;13.418;2023-06-22T07:02:05;7.83;;;4.80;;
62693;SDS011;48759;52.544;13.418;2023-06-22T07:04:31;6.57;;;4.00;;
62693;SDS011;48759;52.544;13.418;2023-06-22T07:06:58;13.27;;;4.70;;
62693;SDS011;48759;52.544;13.418;2023-06-22T07:09:27;4.67;;;4.23;;
62693;SDS011;48759;52.544;13.418;2023-06-22T07:11:55;7.57;;;4.90;;
62693;SDS011;48759;52.544;13.418;2023-06-22T07:14:21;9.40;;;4.27;;
62693;SDS011;48759;52.544;13.418;2023-06-22T07:16:48;4.77;;;4.20;;
62693;SDS011;48759;52.544;13.418;2023-06-22T07:19:15;4.60;;;4.10;;
62693;SDS011;48759;52.544;13.418;2023-06-22T07:21:42;5.87;;;4.87;;
62693;SDS011;48759;52.544;13.418;2023-06-22T07:24:08;10.40;;;4.90;;
62693;SDS011;48759;52.544;13.418;2023-06-22T07:26:35;5.90;;;4.50;;
62693;SDS011;48759;52.544;13.418;2023-06-22T07:29:03;8.00;;;5.17;;
62693;SDS011;48759;52.544;13.418;2023-06-22T07:31:30;10.87;;;5.27;;
62693;SDS011;48759;52.544;13.418;2023-06-22T07:33:56;15.00;;;3.93;;
62693;SDS011;48759;52.544;13.418;2023-06-22T07:36:23;10.73;;;5.00;;
62693;SDS011;48759;52.544;13.418;2023-06-22T07:38:50;15.37;;;6.83;;
62693;SDS011;48759;52.544;13.418;2023-06-22T07:41:17;8.07;;;4.27;;
62693;SDS011;48759;52.544;13.418;2023-06-22T07:43:44;8.30;;;4.53;;
62693;SDS011;48759;52.544;13.418;2023-06-22T07:46:12;4.03;;;3.63;;
62693;SDS011;48759;52.544;13.418;2023-06-22T07:48:39;8.80;;;4.30;;
62693;SDS011;48759;52.544;13.418;2023-06-22T07:51:07;5.80;;;4.47;;
62693;SDS011;48759;52.544;13.418;2023-06-22T07:53:33;7.40;;;3.50;;
62693;SDS011;48759;52.544;13.418;2023-06-22T07:56:01;4.67;;;3.57;;
62693;SDS011;48759;52.544;13.418;2023-06-22T07:58:32;4.43;;;3.43;;
62693;SDS011;48759;52.544;13.418;2023-06-22T08:00:59;6.30;;;3.67;;
62693;SDS011;48759;52.544;13.418;2023-06-22T08:03:27;15.30;;;3.87;;
62693;SDS011;48759;52.544;13.418;2023-06-22T08:05:53;4.67;;;4.17;;
62693;SDS011;48759;52.544;13.418;2023-06-22T08:08:20;4.37;;;3.53;;
62693;SDS011;48759;52.544;13.418;2023-06-22T08:10:47;4.00;;;3.60;;
62693;SDS011;48759;52.544;13.418;2023-06-22T08:13:14;4.90;;;3.53;;
62693;SDS011;48759;52.544;13.418;2023-06-22T08:15:40;6.10;;;3.60;;
62693;SDS011;48759;52.544;13.418;2023-06-22T08:18:07;8.80;;;6.50;;
62693;SDS011;48759;52.544;13.418;2023-06-22T08:20:35;4.17;;;3.77;;
62693;SDS011;48759;52.544;13.418;2023-06-22T08:23:02;4.07;;;3.77;;
62693;SDS011;48759;52.544;13.418;2023-06-22T08:25:31;5.80;;;4.30;;
62693;SDS011;48759;52.544;13.418;2023-06-22T08:27:58;9.37;;;4.60;;
62693;SDS011;48759;52.544;13.418;2023-06-22T08:30:24;6.00;;;3.90;;
62693;SDS011;48759;52.544;13.418;2023-06-22T08:32:51;9.40;;;3.20;;
62693;SDS011;48759;52.544;13.418;2023-06-22T08:35:18;4.53;;;2.83;;
62693;SDS011;48759;52.544;13.418;2023-06-22T08:37:47;5.63;;;3.87;;
62693;SDS011;48759;52.544;13.418;2023-06-22T08:40:17;11.43;;;4.10;;
62693;SDS011;48759;52.544;13.418;2023-06-22T08:42:45;9.83;;;4.20;;
62693;SDS011;48759;52.544;13.418;2023-06-22T08:45:12;8.73;;;4.00;;
62693;SDS011;48759;52.544;13.418;2023-06-22T08:47:39;5.30;;;3.90;;
62693;SDS011;48759;52.544;13.418;2023-06-22T08:50:07;7.37;;;4.77;;
62693;SDS011;48759;52.544;13.418;2023-06-22T08:52:34;6.03;;;4.43;;
62693;SDS011;48759;52.544;13.418;2023-06-22T08:55:03;4.87;;;4.27;;
62693;SDS011;48759;52.544;13.418;2023-06-22T08:57:30;9.03;;;4.40;;
62693;SDS011;48759;52.544;13.418;2023-06-22T08:59:57;5.90;;;5.30;;
62693;SDS011;48759;52.544;13.418;2023-06-22T09:02:24;8.20;;;4.40;;
62693;SDS011;48759;52.544;13.418;2023-06-22T09:04:51;5.77;;;4.87;;
62693;SDS011;48759;52.544;13.418;2023-06-22T09:07:21;10.97;;;4.50;;
62693;SDS011;48759;52.544;13.418;2023-06-22T09:09:48;4.30;;;3.90;;
62693;SDS011;48759;52.544;13.418;2023-06-22T09:12:17;6.67;;;4.30;;
62693;SDS011;48759;52.544;13.418;2023-06-22T09:14:45;11.33;;;4.57;;
62693;SDS011;48759;52.544;13.418;2023-06-22T09:17:12;6.77;;;3.67;;
62693;SDS011;48759;52.544;13.418;2023-06-22T09:19:39;5.70;;;3.73;;
62693;SDS011;48759;52.544;13.418;2023-06-22T09:22:07;7.07;;;4.40;;
62693;SDS011;48759;52.544;13.418;2023-06-22T09:24:34;6.07;;;4.43;;
62693;SDS011;48759;52.544;13.418;2023-06-22T09:27:00;6.73;;;3.70;;
62693;SDS011;48759;52.544;13.418;2023-06-22T09:29:29;4.07;;;3.70;;
62693;SDS011;48759;52.544;13.418;2023-06-22T09:31:58;6.00;;;3.60;;
62693;SDS011;48759;52.544;13.418;2023-06-22T09:34:25;4.67;;;4.27;;
62693;SDS011;48759;52.544;13.418;2023-06-22T09:36:52;4.80;;;3.70;;
62693;SDS011;48759;52.544;13.418;2023-06-22T09:39:20;4.83;;;4.43;;
62693;SDS011;48759;52.544;13.418;2023-06-22T09:41:46;5.80;;;3.50;;
62693;SDS011;48759;52.544;13.418;2023-06-22T09:44:13;4.07;;;3.73;;
62693;SDS011;48759;52.544;13.418;2023-06-22T09:46:41;5.67;;;3.20;;
62693;SDS011;48759;52.544;13.418;2023-06-22T09:49:08;6.07;;;4.17;;
62693;SDS011;48759;52.544;13.418;2023-06-22T09:51:34;5.33;;;4.03;;
62693;SDS011;48759;52.544;13.418;2023-06-22T09:54:01;4.30;;;3.90;;
62693;SDS011;48759;52.544;13.418;2023-06-22T09:56:28;5.63;;;3.10;;
62693;SDS011;48759;52.544;13.418;2023-06-22T09:58:55;5.00;;;3.53;;
62693;SDS011;48759;52.544;13.418;2023-06-22T10:01:22;4.80;;;3.63;;
62693;SDS011;48759;52.544;13.418;2023-06-22T10:03:53;5.20;;;4.30;;
62693;SDS011;48759;52.544;13.418;2023-06-22T10:06:21;3.70;;;3.40;;
62693;SDS011;48759;52.544;13.418;2023-06-22T10:08:50;4.53;;;4.13;;
62693;SDS011;48759;52.544;13.418;2023-06-22T10:11:16;3.90;;;3.60;;
62693;SDS011;48759;52.544;13.418;2023-06-22T10:13:43;6.50;;;4.33;;
62693;SDS011;48759;52.544;13.418;2023-06-22T10:16:10;5.90;;;4.30;;
62693;SDS011;48759;52.544;13.418;2023-06-22T10:18:37;5.30;;;3.97;;
62693;SDS011;48759;52.544;13.418;2023-06-22T10:21:05;7.53;;;3.67;;
62693;SDS011;48759;52.544;13.418;2023-06-22T10:23:31;5.73;;;4.13;;
62693;SDS011;48759;52.544;13.418;2023-06-22T10:25:58;6.93;;;4.57;;
62693;SDS011;48759;52.544;13.418;2023-06-22T10:28:25;5.23;;;4.23;;
62693;SDS011;48759;52.544;13.418;2023-06-22T10:30:51;6.10;;;4.20;;
62693;SDS011;48759;52.544;13.418;2023-06-22T10:33:18;7.53;;;4.30;;
62693;SDS011;48759;52.544;13.418;2023-06-22T10:35:45;4.53;;;4.10;;
62693;SDS011;48759;52.544;13.418;2023-06-22T10:38:13;5.23;;;4.13;;
62693;SDS011;48759;52.544;13.418;2023-06-22T10:40:40;4.90;;;4.37;;
62693;SDS011;48759;52.544;13.418;2023-06-22T10:43:07;6.13;;;4.43;;
62693;SDS011;48759;52.544;13.418;2023-06-22T10:45:33;6.70;;;4.53;;
62693;SDS011;48759;52.544;13.418;2023-06-22T10:48:00;5.60;;;4.33;;
62693;SDS011;48759;52.544;13.418;2023-06-22T10:50:27;4.97;;;4.37;;
62693;SDS011;48759;52.544;13.418;2023-06-22T10:52:53;4.87;;;4.47;;
62693;SDS011;48759;52.544;13.418;2023-06-22T10:55:22;4.87;;;4.47;;
62693;SDS011;48759;52.544;13.418;2023-06-22T10:57:48;11.63;;;4.17;;
62693;SDS011;48759;52.544;13.418;2023-06-22T11:00:15;4.47;;;4.07;;
62693;SDS011;48759;52.544;13.418;2023-06-22T11:02:43;4.73;;;4.27;;
62693;SDS011;48759;52.544;13.418;2023-06-22T11:05:11;5.57;;;4.30;;
62693;SDS011;48759;52.544;13.418;2023-06-22T11:07:37;8.03;;;4.40;;
62693;SDS011;48759;52.544;13.418;2023-06-22T11:10:07;10.83;;;5.20;;
62693;SDS011;48759;52.544;13.418;2023-06-22T11:12:35;9.47;;;4.80;;
62693;SDS011;48759;52.544;13.418;2023-06-22T11:15:02;4.70;;;4.30;;
62693;SDS011;48759;52.544;13.418;2023-06-22T11:17:30;7.83;;;5.43;;
62693;SDS011;48759;52.544;13.418;2023-06-22T11:19:56;6.07;;;4.50;;
62693;SDS011;48759;52.544;13.418;2023-06-22T11:22:25;5.43;;;4.73;;
62693;SDS011;48759;52.544;13.418;2023-06-22T11:24:58;4.97;;;4.50;;
62693;SDS011;48759;52.544;13.418;2023-06-22T11:27:25;6.63;;;4.87;;
62693;SDS011;48759;52.544;13.418;2023-06-22T11:29:54;5.43;;;4.93;;
62693;SDS011;48759;52.544;13.418;2023-06-22T11:32:22;7.13;;;4.27;;
62693;SDS011;48759;52.544;13.418;2023-06-22T11:34:49;6.00;;;4.10;;
62693;SDS011;48759;52.544;13.418;2023-06-22T11:37:19;7.83;;;4.80;;
62693;SDS011;48759;52.544;13.418;2023-06-22T11:39:48;5.63;;;4.23;;
62693;SDS011;48759;52.544;13.418;2023-06-22T11:42:15;4.50;;;4.10;;
62693;SDS011;48759;52.544;13.418;2023-06-22T11:44:42;4.00;;;3.70;;
62693;SDS011;48759;52.544;13.418;2023-06-22T11:47:11;5.10;;;3.90;;
62693;SDS011;48759;52.544;13.418;2023-06-22T11:49:37;6.30;;;4.50;;
62693;SDS011;48759;52.544;13.418;2023-06-22T11:52:05;7.37;;;4.60;;
62693;SDS011;48759;52.544;13.418;2023-06-22T11:54:32;5.10;;;4.60;;
62693;SDS011;48759;52.544;13.418;2023-06-22T11:56:59;12.30;;;4.00;;
62693;SDS011;48759;52.544;13.418;2023-06-22T11:59:26;4.30;;;3.90;;
62693;SDS011;48759;52.544;13.418;2023-06-22T12:01:52;4.90;;;3.77;;
62693;SDS011;48759;52.544;13.418;2023-06-22T12:04:21;4.40;;;4.00;;
62693;SDS011;48759;52.544;13.418;2023-06-22T12:06:47;8.23;;;3.80;;
62693;SDS011;48759;52.544;13.418;2023-06-22T12:09:14;4.40;;;4.00;;
62693;SDS011;48759;52.544;13.418;2023-06-22T12:11:41;8.53;;;3.60;;
62693;SDS011;48759;52.544;13.418;2023-06-22T12:14:14;7.03;;;4.43;;
62693;SDS011;48759;52.544;13.418;2023-06-22T12:16:42;5.63;;;4.80;;
62693;SDS011;48759;52.544;13.418;2023-06-22T12:19:10;4.83;;;4.43;;
62693;SDS011;48759;52.544;13.418;2023-06-22T12:21:39;6.53;;;4.03;;
62693;SDS011;48759;52.544;13.418;2023-06-22T12:24:07;8.10;;;4.30;;
62693;SDS011;48759;52.544;13.418;2023-06-22T12:26:33;4.90;;;4.50;;
62693;SDS011;48759;52.544;13.418;2023-06-22T12:29:02;5.43;;;4.43;;
62693;SDS011;48759;52.544;13.418;2023-06-22T12:31:28;4.33;;;4.00;;
62693;SDS011;48759;52.544;13.418;2023-06-22T12:33:55;6.60;;;3.80;;
62693;SDS011;48759;52.544;13.418;2023-06-22T12:36:22;4.90;;;4.23;;
62693;SDS011;48759;52.544;13.418;2023-06-22T12:38:51;5.70;;;4.37;;
62693;SDS011;48759;52.544;13.418;2023-06-22T12:41:18;4.90;;;4.30;;
62693;SDS011;48759;52.544;13.418;2023-06-22T12:43:46;15.43;;;5.00;;
62693;SDS011;48759;52.544;13.418;2023-06-22T12:46:13;5.90;;;4.10;;
62693;SDS011;48759;52.544;13.418;2023-06-22T12:48:39;7.00;;;4.70;;
62693;SDS011;48759;52.544;13.418;2023-06-22T12:51:07;6.50;;;4.20;;
62693;SDS011;48759;52.544;13.418;2023-06-22T12:53:34;5.10;;;4.70;;
62693;SDS011;48759;52.544;13.418;2023-06-22T12:56:02;7.70;;;5.00;;
62693;SDS011;48759;52.544;13.418;2023-06-22T12:58:30;5.10;;;4.70;;
62693;SDS011;48759;52.544;13.418;2023-06-22T13:00:56;4.47;;;4.17;;
62693;SDS011;48759;52.544;13.418;2023-06-22T13:03:23;6.10;;;4.97;;
62693;SDS011;48759;52.544;13.418;2023-06-22T13:05:52;5.27;;;4.77;;
62693;SDS011;48759;52.544;13.418;2023-06-22T13:08:19;5.40;;;4.87;;
62693;SDS011;48759;52.544;13.418;2023-06-22T13:10:47;5.20;;;4.80;;
62693;SDS011;48759;52.544;13.418;2023-06-22T13:13:15;6.80;;;4.73;;
62693;SDS011;48759;52.544;13.418;2023-06-22T13:15:42;6.40;;;5.90;;
62693;SDS011;48759;52.544;13.418;2023-06-22T13:18:09;5.40;;;4.90;;
62693;SDS011;48759;52.544;13.418;2023-06-22T13:20:35;6.13;;;4.67;;
62693;SDS011;48759;52.544;13.418;2023-06-22T13:23:02;5.83;;;5.30;;
62693;SDS011;48759;52.544;13.418;2023-06-22T13:25:29;5.07;;;4.57;;
62693;SDS011;48759;52.544;13.418;2023-06-22T13:27:56;5.45;;;4.95;;
62693;SDS011;48759;52.544;13.418;2023-06-22T13:30:30;4.80;;;4.32;;
62693;SDS011;48759;52.544;13.418;2023-06-22T13:32:57;5.68;;;4.40;;
62693;SDS011;48759;52.544;13.418;2023-06-22T13:35:24;5.45;;;4.68;;
62693;SDS011;48759;52.544;13.418;2023-06-22T13:37:51;5.07;;;4.28;;
62693;SDS011;48759;52.544;13.418;2023-06-22T13:40:18;7.13;;;4.80;;
62693;SDS011;48759;52.544;13.418;2023-06-22T13:42:45;7.78;;;4.38;;
62693;SDS011;48759;52.544;13.418;2023-06-22T13:45:11;5.60;;;4.65;;
62693;SDS011;48759;52.544;13.418;2023-06-22T13:47:40;4.85;;;4.03;;
62693;SDS011;48759;52.544;13.418;2023-06-22T13:50:07;4.72;;;3.97;;
62693;SDS011;48759;52.544;13.418;2023-06-22T13:52:35;5.00;;;4.50;;
62693;SDS011;48759;52.544;13.418;2023-06-22T13:55:02;6.28;;;4.68;;
62693;SDS011;48759;52.544;13.418;2023-06-22T13:57:29;5.22;;;4.53;;
62693;SDS011;48759;52.544;13.418;2023-06-22T13:59:57;9.60;;;4.40;;
62693;SDS011;48759;52.544;13.418;2023-06-22T14:02:25;4.43;;;3.80;;
62693;SDS011;48759;52.544;13.418;2023-06-22T14:04:54;4.40;;;4.07;;
62693;SDS011;48759;52.544;13.418;2023-06-22T14:07:21;4.82;;;3.65;;
62693;SDS011;48759;52.544;13.418;2023-06-22T14:09:49;6.20;;;4.07;;
62693;SDS011;48759;52.544;13.418;2023-06-22T14:12:16;6.05;;;3.90;;
62693;SDS011;48759;52.544;13.418;2023-06-22T14:14:44;4.30;;;4.00;;
62693;SDS011;48759;52.544;13.418;2023-06-22T14:17:11;4.50;;;4.20;;
62693;SDS011;48759;52.544;13.418;2023-06-22T14:19:38;4.50;;;4.10;;
62693;SDS011;48759;52.544;13.418;2023-06-22T14:22:06;5.68;;;4.28;;
62693;SDS011;48759;52.544;13.418;2023-06-22T14:24:33;5.07;;;4.50;;
62693;SDS011;48759;52.544;13.418;2023-06-22T14:27:03;4.53;;;4.22;;